createdAt,value
2023-05-06T00:02:47.837Z,18.68
2023-05-06T00:17:49.576Z,18.68
2023-05-06T00:32:51.471Z,18.66
2023-05-06T00:47:53.674Z,18.65
2023-05-06T01:02:58.312Z,18.64
2023-05-06T01:18:04.609Z,18.63
2023-05-06T01:33:09.390Z,18.62
2023-05-06T01:48:11.952Z,18.61
2023-05-06T02:03:13.705Z,18.58
2023-05-06T02:18:15.420Z,18.57
2023-05-06T02:33:17.119Z,18.56
2023-05-06T02:48:18.985Z,18.55
2023-05-06T03:03:22.171Z,18.54
2023-05-06T03:18:23.992Z,18.53
2023-05-06T03:33:25.688Z,18.51
2023-05-06T03:48:27.388Z,18.50
2023-05-06T04:03:29.157Z,18.49
2023-05-06T04:18:30.990Z,18.48
2023-05-06T04:33:32.653Z,18.48
2023-05-06T04:48:34.302Z,18.46
2023-05-06T05:03:36.218Z,18.47
2023-05-06T05:18:37.954Z,18.45
2023-05-06T05:33:39.817Z,18.44
2023-05-06T05:48:41.521Z,18.44
2023-05-06T06:03:43.963Z,18.44
2023-05-06T06:18:45.963Z,18.43
2023-05-06T06:33:47.628Z,18.46
2023-05-06T06:48:49.357Z,18.48
2023-05-06T07:03:51.112Z,18.50
2023-05-06T07:18:52.854Z,18.50
2023-05-06T07:33:54.568Z,18.51
2023-05-06T07:48:56.263Z,18.53
2023-05-06T08:03:58.309Z,18.57
2023-05-06T08:19:00.131Z,18.65
2023-05-06T08:34:02.154Z,18.66
2023-05-06T08:49:03.801Z,18.70
2023-05-06T09:04:07.032Z,18.73
2023-05-06T09:19:09.022Z,18.77
2023-05-06T09:34:11.893Z,18.82
2023-05-06T09:49:13.858Z,18.86
2023-05-06T10:04:17.771Z,18.91
2023-05-06T10:19:23.819Z,18.95
2023-05-06T10:34:26.026Z,18.99
2023-05-06T10:49:28.002Z,18.99
2023-05-06T11:04:29.690Z,19.02
2023-05-06T11:19:33.170Z,19.07
2023-05-06T11:34:34.940Z,19.10
2023-05-06T11:49:41.752Z,19.14
2023-05-06T12:04:48.391Z,19.19
2023-05-06T12:19:50.851Z,19.22
2023-05-06T12:34:52.585Z,19.30
2023-05-06T12:49:55.552Z,19.34
2023-05-06T13:04:57.242Z,19.40
2023-05-06T13:19:59.051Z,19.45
2023-05-06T13:35:00.876Z,19.51
2023-05-06T13:50:02.674Z,19.56
2023-05-06T14:05:04.900Z,19.62
2023-05-06T14:20:07.686Z,19.69
2023-05-06T14:35:10.890Z,19.73
2023-05-06T14:50:13.085Z,19.76
2023-05-06T15:05:15.082Z,19.79
2023-05-06T15:20:16.957Z,19.83
2023-05-06T15:35:18.664Z,19.87
2023-05-06T15:50:32.604Z,19.89
2023-05-06T16:05:35.333Z,19.90
2023-05-06T16:20:37.220Z,19.92
2023-05-06T16:35:39.257Z,19.94
2023-05-06T16:50:41.788Z,19.96
2023-05-06T17:05:43.544Z,19.98
2023-05-06T17:20:55.138Z,19.97
2023-05-06T17:35:58.514Z,19.95
2023-05-06T17:51:00.967Z,19.96
2023-05-06T18:06:02.630Z,19.93
2023-05-06T18:21:04.309Z,19.91
2023-05-06T18:36:06.395Z,19.89
2023-05-06T18:51:15.896Z,19.87
2023-05-06T19:06:17.748Z,19.85
2023-05-06T19:21:19.774Z,19.81
2023-05-06T19:36:21.553Z,19.80
2023-05-06T19:51:23.247Z,19.77
2023-05-06T20:06:24.962Z,19.74
2023-05-06T20:21:26.660Z,19.69
2023-05-06T20:36:28.464Z,19.65
2023-05-06T20:51:30.263Z,19.62
2023-05-06T21:06:32.092Z,19.58
2023-05-06T21:21:34.105Z,19.57
2023-05-06T21:36:36.892Z,19.52
2023-05-06T21:51:38.663Z,19.52
2023-05-06T22:06:40.742Z,19.50
2023-05-06T22:21:42.440Z,19.45
2023-05-06T22:36:44.347Z,19.43
2023-05-06T22:51:46.219Z,19.41
2023-05-06T23:06:47.992Z,19.39
2023-05-06T23:21:49.704Z,19.37
2023-05-06T23:36:51.807Z,19.34
2023-05-06T23:51:53.464Z,19.32
